createdAt,value
2023-07-22T00:01:30.282Z,16.28
2023-07-22T00:04:32.612Z,16.20
2023-07-22T00:07:34.943Z,16.27
2023-07-22T00:10:41.302Z,16.34
2023-07-22T00:13:45.102Z,16.31
2023-07-22T00:16:47.146Z,16.21
2023-07-22T00:19:49.329Z,16.27
2023-07-22T00:22:51.669Z,16.35
2023-07-22T00:25:53.680Z,16.31
2023-07-22T00:28:55.598Z,16.19
2023-07-22T00:31:57.558Z,16.21
2023-07-22T00:34:59.636Z,16.11
2023-07-22T00:38:02.703Z,16.10
2023-07-22T00:41:05.933Z,16.03
2023-07-22T00:44:07.943Z,16.04
2023-07-22T00:47:10.860Z,16.06
2023-07-22T00:50:13.898Z,15.98
2023-07-22T00:53:16.193Z,15.92
2023-07-22T00:56:18.309Z,15.73
2023-07-22T00:59:20.445Z,15.72
2023-07-22T01:02:23.224Z,15.66
2023-07-22T01:05:27.704Z,15.71
2023-07-22T01:08:30.075Z,15.61
2023-07-22T01:11:32.075Z,15.51
2023-07-22T01:14:39.058Z,15.42
2023-07-22T01:17:41.216Z,15.46
2023-07-22T01:20:44.126Z,15.42
2023-07-22T01:23:46.196Z,15.43
2023-07-22T01:26:48.990Z,15.37
2023-07-22T01:29:55.001Z,15.29
2023-07-22T01:32:57.477Z,15.41
2023-07-22T01:36:01.920Z,15.36
2023-07-22T01:39:06.927Z,15.24
2023-07-22T01:42:09.254Z,15.17
2023-07-22T01:45:11.867Z,15.31
2023-07-22T01:48:14.253Z,15.28
2023-07-22T01:51:16.202Z,15.32
2023-07-22T01:54:18.143Z,15.35
2023-07-22T01:57:20.339Z,15.08
2023-07-22T02:00:22.384Z,14.99
2023-07-22T02:03:24.569Z,15.10
2023-07-22T02:06:28.309Z,14.96
2023-07-22T02:09:31.026Z,15.09
2023-07-22T02:12:33.168Z,15.04
2023-07-22T02:15:36.058Z,14.96
2023-07-22T02:18:38.917Z,14.98
2023-07-22T02:21:41.530Z,14.97
2023-07-22T02:24:43.915Z,14.92
2023-07-22T02:27:46.655Z,14.91
2023-07-22T02:30:50.150Z,14.95
2023-07-22T02:33:52.777Z,14.94
2023-07-22T02:36:55.426Z,14.83
2023-07-22T02:39:57.824Z,14.86
2023-07-22T02:43:00.093Z,14.79
2023-07-22T02:46:04.209Z,14.70
2023-07-22T02:49:06.413Z,14.73
2023-07-22T02:52:09.108Z,14.79
2023-07-22T02:55:21.792Z,14.86
2023-07-22T02:58:24.165Z,15.14
2023-07-22T03:01:26.728Z,15.35
2023-07-22T03:04:29.071Z,15.46
2023-07-22T03:07:31.260Z,15.52
2023-07-22T03:10:33.750Z,15.60
2023-07-22T03:13:36.603Z,15.54
2023-07-22T03:16:41.351Z,15.63
2023-07-22T03:19:43.837Z,15.67
2023-07-22T03:22:46.835Z,15.64
2023-07-22T03:25:49.353Z,15.66
2023-07-22T03:28:51.765Z,15.64
2023-07-22T03:31:53.885Z,15.66
2023-07-22T03:34:57.577Z,15.66
2023-07-22T03:37:59.772Z,15.70
2023-07-22T03:41:04.081Z,15.79
2023-07-22T03:44:09.957Z,15.78
2023-07-22T03:47:12.082Z,15.74
2023-07-22T03:50:14.286Z,15.79
2023-07-22T03:53:18.696Z,15.90
2023-07-22T03:56:20.669Z,16.04
2023-07-22T03:59:24.955Z,16.11
2023-07-22T04:02:28.068Z,16.21
2023-07-22T04:05:30.338Z,16.31
2023-07-22T04:08:32.710Z,16.31
2023-07-22T04:11:34.722Z,16.46
2023-07-22T04:14:44.030Z,16.57
2023-07-22T04:28:04.747Z,17.58
2023-07-22T05:08:16.166Z,20.70
2023-07-22T05:09:28.146Z,21.30
2023-07-22T05:13:17.785Z,21.68
2023-07-22T05:16:31.433Z,21.40
2023-07-22T05:19:57.634Z,21.87
2023-07-22T05:23:16.378Z,22.02
2023-07-22T05:26:24.442Z,22.18
2023-07-22T05:29:29.599Z,22.77
2023-07-22T05:32:53.073Z,23.13
2023-07-22T05:35:58.658Z,23.55
2023-07-22T05:39:08.692Z,23.20
2023-07-22T05:42:19.262Z,23.49
2023-07-22T05:45:31.865Z,23.50
2023-07-22T05:48:41.024Z,23.22
2023-07-22T05:51:54.323Z,23.94
2023-07-22T05:59:34.298Z,24.37
2023-07-22T06:08:23.290Z,25.89
2023-07-22T06:11:25.503Z,25.30
2023-07-22T06:14:28.366Z,25.94
2023-07-22T06:17:30.567Z,26.08
2023-07-22T06:20:47.214Z,27.21
2023-07-22T06:23:51.729Z,27.67
2023-07-22T06:26:54.019Z,27.25
2023-07-22T06:29:59.253Z,26.87
2023-07-22T06:33:01.975Z,26.96
2023-07-22T06:36:04.352Z,26.45
2023-07-22T06:39:16.422Z,25.99
2023-07-22T06:42:21.117Z,26.74
2023-07-22T06:45:38.514Z,27.59
2023-07-22T06:50:00.567Z,27.74
2023-07-22T07:02:50.963Z,29.46
2023-07-22T07:06:53.287Z,28.38
2023-07-22T07:11:06.588Z,29.05
2023-07-22T07:19:44.240Z,29.97
2023-07-22T07:22:58.863Z,28.04
2023-07-22T07:26:28.212Z,28.04
2023-07-22T07:33:48.012Z,30.00
2023-07-22T07:36:53.244Z,29.99
2023-07-22T07:44:59.954Z,31.18
2023-07-22T07:48:10.024Z,31.70
2023-07-22T08:02:43.175Z,31.29
2023-07-22T08:16:33.408Z,31.98
2023-07-22T08:34:31.716Z,32.92
2023-07-22T08:46:09.825Z,31.55
2023-07-22T09:06:53.716Z,30.75
2023-07-22T09:12:03.887Z,28.95
2023-07-22T09:52:15.212Z,27.43
2023-07-22T09:55:34.574Z,28.37
2023-07-22T10:03:03.941Z,26.63
2023-07-22T10:04:35.430Z,28.07
2023-07-22T10:06:18.397Z,26.51
2023-07-22T10:10:13.092Z,26.26
2023-07-22T10:13:38.471Z,25.14
2023-07-22T10:17:33.827Z,25.41
2023-07-22T10:21:57.022Z,25.11
2023-07-22T10:28:54.123Z,27.82
2023-07-22T10:32:01.164Z,27.30
2023-07-22T10:35:11.289Z,27.37
2023-07-22T10:37:08.205Z,26.00
2023-07-22T10:38:17.654Z,26.83
2023-07-22T10:41:19.854Z,28.82
2023-07-22T10:44:30.515Z,29.04
2023-07-22T10:48:08.754Z,29.47
2023-07-22T10:51:16.550Z,30.40
2023-07-22T10:55:04.011Z,28.54
2023-07-22T10:58:14.619Z,29.33
2023-07-22T11:01:55.943Z,28.32
2023-07-22T11:05:21.773Z,29.58
2023-07-22T11:08:42.773Z,30.17
2023-07-22T11:11:46.231Z,29.50
2023-07-22T11:14:52.832Z,28.44
2023-07-22T11:17:55.727Z,29.13
2023-07-22T11:20:57.700Z,29.03
2023-07-22T11:23:59.965Z,28.64
2023-07-22T11:27:05.101Z,26.95
2023-07-22T11:30:08.805Z,26.64
2023-07-22T11:33:10.943Z,28.19
2023-07-22T11:36:15.191Z,28.11
2023-07-22T11:39:19.758Z,27.10
2023-07-22T11:42:22.017Z,26.80
2023-07-22T11:45:26.510Z,26.70
2023-07-22T11:48:28.482Z,26.16
2023-07-22T11:51:38.374Z,25.64
2023-07-22T11:54:42.949Z,25.52
2023-07-22T11:57:57.442Z,26.69
2023-07-22T12:01:08.030Z,27.42
2023-07-22T12:04:16.331Z,26.51
2023-07-22T12:07:30.213Z,26.16
2023-07-22T12:10:35.481Z,25.98
2023-07-22T12:13:40.309Z,26.21
2023-07-22T12:16:43.672Z,25.84
2023-07-22T12:19:58.545Z,26.77
2023-07-22T12:23:12.263Z,26.82
2023-07-22T12:26:26.274Z,26.40
2023-07-22T12:29:28.701Z,26.90
2023-07-22T12:32:31.093Z,26.49
2023-07-22T12:35:40.438Z,27.00
2023-07-22T12:39:04.503Z,26.80
2023-07-22T12:42:07.050Z,26.94
2023-07-22T12:45:15.615Z,26.56
2023-07-22T12:48:22.423Z,26.53
2023-07-22T12:51:25.324Z,26.06
2023-07-22T12:54:30.154Z,26.52
2023-07-22T12:57:35.102Z,26.84
2023-07-22T13:00:40.121Z,26.41
2023-07-22T13:03:42.451Z,26.32
2023-07-22T13:06:46.862Z,26.11
2023-07-22T13:09:54.458Z,25.92
2023-07-22T13:12:56.852Z,26.07
2023-07-22T13:15:59.108Z,25.59
2023-07-22T13:19:04.357Z,24.62
2023-07-22T13:22:08.892Z,25.05
2023-07-22T13:25:16.130Z,25.60
2023-07-22T13:28:23.903Z,25.41
2023-07-22T13:31:27.051Z,25.46
2023-07-22T13:34:34.078Z,25.14
2023-07-22T13:37:36.496Z,24.76
2023-07-22T13:40:41.541Z,24.95
2023-07-22T13:43:44.424Z,24.55
2023-07-22T13:46:51.607Z,24.80
2023-07-22T13:49:53.990Z,24.74
2023-07-22T13:52:56.294Z,24.58
2023-07-22T13:56:03.814Z,24.45
2023-07-22T13:59:06.243Z,24.41
2023-07-22T14:02:09.291Z,24.37
2023-07-22T14:05:16.541Z,24.41
2023-07-22T14:08:21.561Z,24.34
2023-07-22T14:11:26.925Z,24.38
2023-07-22T14:14:32.227Z,24.28
2023-07-22T14:17:42.112Z,24.04
2023-07-22T14:20:45.189Z,23.92
2023-07-22T14:23:49.678Z,24.19
2023-07-22T14:26:55.339Z,24.07
2023-07-22T14:30:10.759Z,23.98
2023-07-22T14:33:22.750Z,23.79
2023-07-22T14:36:55.506Z,23.89
2023-07-22T14:40:06.249Z,23.92
2023-07-22T14:43:14.980Z,23.87
2023-07-22T14:46:17.657Z,23.98
2023-07-22T14:51:57.252Z,23.91
2023-07-22T14:53:17.565Z,23.93
2023-07-22T14:56:23.227Z,23.88
2023-07-22T14:59:25.488Z,23.86
2023-07-22T15:02:30.009Z,23.91
2023-07-22T15:05:32.517Z,23.86
2023-07-22T15:08:35.051Z,23.84
2023-07-22T15:11:38.324Z,23.85
2023-07-22T15:14:41.110Z,23.95
2023-07-22T15:17:43.229Z,23.92
2023-07-22T15:20:45.399Z,23.68
2023-07-22T15:23:51.250Z,23.54
2023-07-22T15:26:56.276Z,23.52
2023-07-22T15:30:04.363Z,23.42
2023-07-22T15:33:08.806Z,23.69
2023-07-22T15:36:11.390Z,23.76
2023-07-22T15:39:15.753Z,23.61
2023-07-22T15:42:18.269Z,23.58
2023-07-22T15:45:23.550Z,23.46
2023-07-22T15:48:31.196Z,23.27
2023-07-22T15:51:35.551Z,23.16
2023-07-22T15:54:40.059Z,23.18
2023-07-22T15:57:42.474Z,23.12
2023-07-22T16:00:47.752Z,23.01
2023-07-22T16:03:52.367Z,23.00
2023-07-22T16:06:56.770Z,23.08
2023-07-22T16:09:58.928Z,23.18
2023-07-22T16:13:03.591Z,22.99
2023-07-22T16:16:05.774Z,23.04
2023-07-22T16:19:08.010Z,22.95
2023-07-22T16:22:12.358Z,22.89
2023-07-22T16:25:15.155Z,22.77
2023-07-22T16:28:19.517Z,22.59
2023-07-22T16:31:26.511Z,22.60
2023-07-22T16:34:31.170Z,22.59
2023-07-22T16:37:36.194Z,22.50
2023-07-22T16:40:42.903Z,22.44
2023-07-22T16:43:47.196Z,22.43
2023-07-22T16:46:51.668Z,22.31
2023-07-22T16:49:53.930Z,22.12
2023-07-22T16:52:56.056Z,22.17
2023-07-22T16:56:03.050Z,22.18
2023-07-22T16:59:05.212Z,22.17
2023-07-22T17:02:07.323Z,22.11
2023-07-22T17:05:10.606Z,22.01
2023-07-22T17:08:15.112Z,22.01
2023-07-22T17:11:17.512Z,21.95
2023-07-22T17:14:23.676Z,22.03
2023-07-22T17:17:28.164Z,21.97
2023-07-22T17:20:32.802Z,21.92
2023-07-22T17:23:39.749Z,21.81
2023-07-22T17:26:44.338Z,21.72
2023-07-22T17:29:51.142Z,21.81
2023-07-22T17:32:58.696Z,21.66
2023-07-22T17:36:04.144Z,21.69
2023-07-22T17:39:06.306Z,21.77
2023-07-22T17:42:10.912Z,21.89
2023-07-22T17:45:13.108Z,21.71
2023-07-22T17:48:17.823Z,21.83
2023-07-22T17:51:22.121Z,21.39
2023-07-22T17:54:29.008Z,21.43
2023-07-22T17:57:34.274Z,21.26
2023-07-22T18:00:40.003Z,21.32
2023-07-22T18:03:42.303Z,21.25
2023-07-22T18:06:46.949Z,21.25
2023-07-22T18:09:51.586Z,21.14
2023-07-22T18:12:56.886Z,21.02
2023-07-22T18:16:01.438Z,21.00
2023-07-22T18:19:03.658Z,20.88
2023-07-22T18:22:10.432Z,20.46
2023-07-22T18:25:17.480Z,20.30
2023-07-22T18:28:19.653Z,20.28
2023-07-22T18:31:21.973Z,19.91
2023-07-22T18:34:24.454Z,19.97
2023-07-22T18:37:29.135Z,19.90
2023-07-22T18:40:33.453Z,19.55
2023-07-22T18:43:35.595Z,19.22
2023-07-22T18:46:38.244Z,19.13
2023-07-22T18:49:40.454Z,19.22
2023-07-22T18:52:42.533Z,19.00
2023-07-22T18:55:46.877Z,18.89
2023-07-22T18:58:48.951Z,18.82
2023-07-22T19:01:51.001Z,18.70
2023-07-22T19:04:53.227Z,18.50
2023-07-22T19:07:55.443Z,18.36
2023-07-22T19:10:57.605Z,18.18
2023-07-22T19:14:00.195Z,18.06
2023-07-22T19:17:05.076Z,18.15
2023-07-22T19:20:07.186Z,18.12
2023-07-22T19:23:11.652Z,18.20
2023-07-22T19:26:13.801Z,17.96
2023-07-22T19:29:15.932Z,17.88
2023-07-22T19:32:17.998Z,17.60
2023-07-22T19:35:20.192Z,17.64
2023-07-22T19:38:22.244Z,17.66
2023-07-22T19:41:24.356Z,17.28
2023-07-22T19:44:26.426Z,17.24
2023-07-22T19:47:28.534Z,17.14
2023-07-22T19:50:33.913Z,17.21
2023-07-22T19:53:37.356Z,17.07
2023-07-22T19:56:42.867Z,16.95
2023-07-22T19:59:57.817Z,16.93
2023-07-22T20:03:00.181Z,17.02
2023-07-22T20:06:05.562Z,16.87
2023-07-22T20:09:10.239Z,16.81
2023-07-22T20:12:15.222Z,16.90
2023-07-22T20:15:39.707Z,17.02
2023-07-22T20:18:44.655Z,16.69
2023-07-22T20:21:47.397Z,16.66
2023-07-22T20:24:49.782Z,16.44
2023-07-22T20:27:56.011Z,16.45
2023-07-22T20:31:09.349Z,16.43
2023-07-22T20:34:13.327Z,16.52
2023-07-22T20:37:15.457Z,16.50
2023-07-22T20:40:17.586Z,16.48
2023-07-22T20:43:21.942Z,16.34
2023-07-22T20:46:23.990Z,16.44
2023-07-22T20:49:28.949Z,16.39
2023-07-22T20:52:31.221Z,16.21
2023-07-22T20:55:34.686Z,16.23
2023-07-22T20:58:36.971Z,16.36
2023-07-22T21:01:39.231Z,16.48
2023-07-22T21:04:42.738Z,16.39
2023-07-22T21:07:47.180Z,16.45
2023-07-22T21:10:52.634Z,16.42
2023-07-22T21:13:54.748Z,16.48
2023-07-22T21:16:59.086Z,16.57
2023-07-22T21:20:03.782Z,16.44
2023-07-22T21:23:08.270Z,16.38
2023-07-22T21:26:12.900Z,16.35
2023-07-22T21:29:16.738Z,16.17
2023-07-22T21:32:18.830Z,16.34
2023-07-22T21:35:21.199Z,16.38
2023-07-22T21:38:23.418Z,16.24
2023-07-22T21:41:28.381Z,16.23
2023-07-22T21:44:30.923Z,15.81
2023-07-22T21:47:33.130Z,15.93
2023-07-22T21:50:39.277Z,15.66
2023-07-22T21:53:41.468Z,15.73
2023-07-22T21:56:43.616Z,15.84
2023-07-22T21:59:45.761Z,15.93
2023-07-22T22:02:47.981Z,15.68
2023-07-22T22:05:50.174Z,15.74
2023-07-22T22:08:52.788Z,15.72
2023-07-22T22:11:54.835Z,15.61
2023-07-22T22:14:56.998Z,15.44
2023-07-22T22:18:00.552Z,15.53
2023-07-22T22:21:03.356Z,15.64
2023-07-22T22:24:05.762Z,15.64
2023-07-22T22:27:07.885Z,15.63
2023-07-22T22:30:10.340Z,15.68
2023-07-22T22:33:12.658Z,15.45
2023-07-22T22:36:15.067Z,15.39
2023-07-22T22:39:19.476Z,15.51
2023-07-22T22:42:21.729Z,15.48
2023-07-22T22:45:23.941Z,15.26
2023-07-22T22:48:26.238Z,15.27
2023-07-22T22:51:30.882Z,15.49
2023-07-22T22:54:33.280Z,15.36
2023-07-22T22:57:38.236Z,15.59
2023-07-22T23:00:42.571Z,15.40
2023-07-22T23:03:45.189Z,15.26
2023-07-22T23:06:47.334Z,15.27
2023-07-22T23:09:49.509Z,15.41
2023-07-22T23:12:51.898Z,15.41
2023-07-22T23:15:56.278Z,15.43
2023-07-22T23:19:01.462Z,15.40
2023-07-22T23:22:03.593Z,15.40
2023-07-22T23:25:06.398Z,15.32
2023-07-22T23:28:08.480Z,15.42
2023-07-22T23:31:18.318Z,15.49
2023-07-22T23:34:20.810Z,15.35
2023-07-22T23:37:23.017Z,15.13
2023-07-22T23:40:27.452Z,15.14
2023-07-22T23:43:29.734Z,15.12
2023-07-22T23:46:32.907Z,15.18
2023-07-22T23:49:37.244Z,15.18
2023-07-22T23:52:41.638Z,15.23
2023-07-22T23:55:46.434Z,15.17
2023-07-22T23:58:48.659Z,15.16
